Weather reports worldwide

Advertisment
Herwijnen aws, Netherlands (6356): temperature & dewpoint: 22.01.2020 08:00:00 - 28.01.2020 08:00:00 (CET)Herwijnen aws, Netherlands (6356): temperature 5cm: 22.01.2020 08:00:00 - 28.01.2020 08:00:00 (CET)Herwijnen aws, Netherlands (6356): wind speed & gusts: 22.01.2020 08:00:00 - 28.01.2020 08:00:00 (CET)Herwijnen aws, Netherlands (6356): wind direction: 22.01.2020 08:00:00 - 28.01.2020 08:00:00 (CET)Herwijnen aws, Netherlands (6356): reduced air pressure: 22.01.2020 08:00:00 - 28.01.2020 08:00:00 (CET)Herwijnen aws, Netherlands (6356): precipitation: 22.01.2020 08:00:00 - 28.01.2020 08:00:00 (CET)
Date & Time tt [°C] td [°C] tt 5cm [°C] ff [km/h] ff [kn] fx [km/h] fx [kn] dd ppp [hPa] rr [mm]
28.01.2020 08:00:00 - - - - - - - - - -
28.01.2020 07:00:00 6,4 4,9 5,8 18 10 36 19 S 988,2 0,0
28.01.2020 06:00:00 6,2 4,9 5,7 22 12 43 23 SSW 989,4 0,0
28.01.2020 05:00:00 5,9 5,0 5,5 14 8 36 19 SW 990,7 1,1
28.01.2020 04:00:00 5,6 4,6 5,3 18 10 32 18 SSW 991,8 0,0
28.01.2020 03:00:00 6,0 4,5 5,7 32 18 50 27 SW 992,5 0,0
28.01.2020 02:00:00 7,1 5,8 6,8 25 14 36 19 SW 992,6 0,0
28.01.2020 01:00:00 6,9 5,7 6,6 25 14 58 31 WSW 992,9 0,0
28.01.2020 00:00:00 8,0 5,7 7,6 40 21 54 29 SW 992,2 0,2
27.01.2020 23:00:00 7,2 6,8 7,1 22 12 43 23 S 992,8 2,1
27.01.2020 22:00:00 7,7 6,7 7,4 22 12 32 18 SSE 994,8 1,0
27.01.2020 21:00:00 7,5 6,6 7,1 18 10 29 16 SSE 996,4 0,0
27.01.2020 20:00:00 7,5 6,5 6,9 18 10 29 16 SSE 997,9 0,1
27.01.2020 19:00:00 7,5 6,6 7,2 14 8 32 18 S 999,6 2,3
27.01.2020 18:00:00 8,2 7,2 7,9 14 8 22 12 S 1000,9 0,7
27.01.2020 17:00:00 8,7 6,5 8,1 11 6 22 12 S 1001,7 0,0
27.01.2020 16:00:00 9,2 7,0 8,9 14 8 22 12 SSW 1002,5 0,0
27.01.2020 15:00:00 9,4 7,2 9,3 14 8 29 16 SSW 1003,0 0,0
27.01.2020 14:00:00 9,4 7,3 9,4 18 10 29 16 SSW 1003,5 0,0
27.01.2020 13:00:00 9,4 7,7 9,4 18 10 29 16 SSW 1004,6 0,0
27.01.2020 12:00:00 9,3 8,0 9,4 14 8 25 14 SSW 1005,7 0,0
27.01.2020 11:00:00 8,8 7,9 8,7 14 8 22 12 S 1006,1 0,0
27.01.2020 10:00:00 8,6 7,8 8,2 14 8 25 14 SSW 1006,5 0,0
27.01.2020 09:00:00 8,4 7,7 8,0 18 10 32 18 SSW 1006,7 0,0
27.01.2020 08:00:00 8,3 7,9 8,0 18 10 29 16 SSW 1006,7 0,2
27.01.2020 07:00:00 8,2 8,0 8,0 18 10 32 18 SSW 1006,9 0,4
27.01.2020 06:00:00 8,2 7,8 8,0 18 10 32 18 SSW 1007,1 0,2
27.01.2020 05:00:00 8,2 7,7 7,9 22 12 32 18 SSW 1007,6 0,1
27.01.2020 04:00:00 7,8 7,5 7,4 22 12 32 18 SSW 1007,8 1,0
27.01.2020 03:00:00 7,4 7,1 7,2 22 12 32 18 S 1008,4 1,5
27.01.2020 02:00:00 7,5 6,3 7,2 22 12 36 19 S 1009,0 0,3
27.01.2020 01:00:00 7,6 5,8 7,1 22 12 32 18 S 1009,5 0,1
27.01.2020 00:00:00 7,6 5,8 7,2 18 10 32 18 S 1010,2 0,0
26.01.2020 23:00:00 7,8 5,5 7,3 18 10 36 19 S 1010,7 0,0
26.01.2020 22:00:00 7,4 5,3 7,0 14 8 25 14 S 1011,5 0,0
26.01.2020 21:00:00 7,3 5,1 6,4 14 8 29 16 S 1011,9 0,0
26.01.2020 20:00:00 7,7 5,9 6,9 14 8 36 19 SSW 1012,3 0,0
26.01.2020 19:00:00 8,5 6,2 7,5 14 8 22 12 SSW 1012,3 0,0
26.01.2020 18:00:00 7,8 5,9 6,8 7 4 18 10 S 1012,6 0,0
26.01.2020 17:00:00 8,5 5,8 7,7 14 8 29 16 SSW 1012,6 0,0
26.01.2020 16:00:00 9,4 6,8 9,1 11 6 22 12 S 1013,0 0,0
26.01.2020 15:00:00 9,7 6,7 9,9 14 8 22 12 S 1013,2 0,0
26.01.2020 14:00:00 9,2 6,3 9,7 14 8 22 12 SSW 1013,8 0,0
26.01.2020 13:00:00 8,1 5,7 8,9 18 10 22 12 SW 1014,5 0,0
26.01.2020 12:00:00 6,6 4,8 7,2 11 6 22 12 S 1015,2 0,0
26.01.2020 11:00:00 4,4 3,8 4,5 14 8 18 10 S 1015,8 0,0
26.01.2020 10:00:00 3,6 3,2 3,4 11 6 18 10 SSE 1015,9 0,0
26.01.2020 09:00:00 2,9 2,8 2,7 14 8 18 10 SSE 1015,9 0,0
26.01.2020 08:00:00 2,2 2,1 2,0 14 8 18 10 SE 1015,8 0,0
26.01.2020 07:00:00 2,1 2,1 2,1 11 6 22 12 SE 1016,0 0,0
26.01.2020 06:00:00 2,4 2,3 2,5 11 6 22 12 SE 1016,2 0,0
26.01.2020 05:00:00 2,4 2,3 2,4 11 6 22 12 SSE 1016,7 0,0
26.01.2020 04:00:00 2,1 2,1 2,2 14 8 22 12 SE 1017,0 0,0
26.01.2020 03:00:00 1,7 1,6 1,8 11 6 18 10 ESE 1017,5 0,0
26.01.2020 02:00:00 1,2 1,1 1,3 11 6 22 12 SE 1018,2 0,0
26.01.2020 01:00:00 1,0 0,9 1,1 14 8 22 12 ESE 1018,8 0,0
26.01.2020 00:00:00 0,9 0,8 1,1 11 6 18 10 SE 1019,4 0,0
25.01.2020 23:00:00 1,0 0,9 1,2 11 6 14 8 ESE 1019,7 0,0
25.01.2020 22:00:00 1,1 1,0 1,2 7 4 18 10 SE 1020,2 0,0
25.01.2020 21:00:00 1,3 0,9 1,5 14 8 18 10 SSE 1020,5 0,0
25.01.2020 20:00:00 2,2 1,6 2,2 11 6 22 12 SSE 1020,6 0,0
25.01.2020 19:00:00 2,1 1,6 2,2 7 4 14 8 SSE 1020,6 0,0
25.01.2020 18:00:00 2,1 1,5 2,1 7 4 11 6 SSE 1020,4 0,0
25.01.2020 17:00:00 2,0 1,3 2,1 11 6 14 8 SSE 1020,3 0,0
25.01.2020 16:00:00 2,0 1,1 2,3 11 6 14 8 S 1020,7 0,0
25.01.2020 15:00:00 1,8 0,8 2,2 11 6 18 10 SSE 1021,1 0,0
25.01.2020 14:00:00 1,7 0,8 2,2 11 6 18 10 SSE 1021,7 0,0
25.01.2020 13:00:00 1,4 1,0 1,9 11 6 18 10 S 1022,1 0,0
25.01.2020 12:00:00 1,7 0,9 2,2 11 6 18 10 SSE 1022,7 0,0
25.01.2020 11:00:00 1,7 0,7 2,1 14 8 22 12 S 1022,6 0,0
25.01.2020 10:00:00 1,7 0,7 1,8 14 8 22 12 S 1022,2 0,0
25.01.2020 09:00:00 1,6 0,9 1,6 11 6 22 12 S 1022,2 0,0
25.01.2020 08:00:00 1,7 1,2 1,6 14 8 18 10 S 1022,0 0,0
25.01.2020 07:00:00 1,6 1,3 1,6 11 6 18 10 SSE 1021,8 0,0
25.01.2020 06:00:00 1,6 1,2 1,6 11 6 18 10 S 1021,6 0,0
25.01.2020 05:00:00 1,8 1,5 1,8 11 6 14 8 S 1021,8 0,0
25.01.2020 04:00:00 1,8 1,4 1,8 11 6 14 8 S 1022,1 0,0
25.01.2020 03:00:00 1,8 1,6 1,8 11 6 14 8 S 1022,4 0,0
25.01.2020 02:00:00 1,8 1,6 1,9 7 4 18 10 S 1022,6 0,0
25.01.2020 01:00:00 1,9 1,7 2,0 11 6 18 10 SSW 1022,8 0,0
25.01.2020 00:00:00 2,0 1,7 2,0 11 6 14 8 SSW 1023,0 0,0
24.01.2020 23:00:00 2,1 1,8 2,1 7 4 14 8 S 1023,2 0,0
24.01.2020 22:00:00 2,1 1,9 2,1 11 6 18 10 S 1023,1 0,0
24.01.2020 21:00:00 2,0 1,8 2,1 11 6 14 8 S 1023,2 0,0
24.01.2020 20:00:00 2,0 1,9 2,1 11 6 14 8 S 1023,6 0,0
24.01.2020 19:00:00 2,3 1,8 2,3 7 4 11 6 SSW 1023,4 0,0
24.01.2020 18:00:00 2,2 1,7 2,3 11 6 18 10 SW 1022,9 0,0
24.01.2020 17:00:00 2,4 1,9 2,5 11 6 14 8 SSW 1022,7 0,0
24.01.2020 16:00:00 2,8 2,0 3,0 11 6 22 12 S 1022,5 0,0
24.01.2020 15:00:00 2,7 2,1 2,9 11 6 14 8 S 1022,7 0,0
24.01.2020 14:00:00 2,6 2,3 3,0 11 6 14 8 S 1023,4 0,0
24.01.2020 13:00:00 2,3 2,2 2,7 7 4 14 8 S 1024,1 0,0
24.01.2020 12:00:00 2,2 2,0 2,7 11 6 14 8 S 1024,2 0,0
24.01.2020 11:00:00 1,9 1,8 2,1 4 2 14 8 W 1024,7 0,0
24.01.2020 10:00:00 1,6 1,5 1,7 11 6 18 10 WSW 1024,5 0,0
24.01.2020 09:00:00 1,3 1,2 1,5 11 6 18 10 SW 1024,1 0,0
24.01.2020 08:00:00 1,3 1,2 1,5 11 6 14 8 SW 1023,9 0,0
24.01.2020 07:00:00 1,5 1,4 1,7 7 4 11 6 S 1023,8 0,0
24.01.2020 06:00:00 1,7 1,6 1,9 4 2 14 8 SSW 1024,0 0,0
24.01.2020 05:00:00 1,7 1,6 1,8 7 4 11 6 SSW 1024,1 0,0
24.01.2020 04:00:00 1,8 1,7 2,0 7 4 11 6 S 1024,9 0,0
24.01.2020 03:00:00 2,2 2,1 2,3 7 4 11 6 S 1025,3 0,0
24.01.2020 02:00:00 2,3 1,9 2,4 4 2 11 6 S 1025,9 0,0
24.01.2020 01:00:00 2,6 1,9 2,6 7 4 11 6 SSE 1026,4 0,0
24.01.2020 00:00:00 2,8 1,6 2,6 7 4 14 8 SE 1026,6 0,0
23.01.2020 23:00:00 2,7 1,2 2,4 7 4 14 8 SE 1027,0 0,0
23.01.2020 22:00:00 2,7 1,1 1,8 11 6 14 8 ESE 1027,3 0,0
23.01.2020 21:00:00 1,5 0,5 0,4 7 4 11 6 E 1027,6 0,0
23.01.2020 20:00:00 1,2 0,4 0,1 7 4 7 4 E 1028,1 0,0
23.01.2020 19:00:00 2,2 1,4 0,5 7 4 11 6 E 1028,3 0,0
23.01.2020 18:00:00 3,5 2,7 2,7 7 4 11 6 E 1028,6 0,0
23.01.2020 17:00:00 4,4 2,2 3,7 7 4 11 6 E 1028,9 0,0
23.01.2020 16:00:00 5,3 2,5 5,3 7 4 14 8 SE 1029,5 0,0
23.01.2020 15:00:00 6,0 2,6 6,7 11 6 14 8 ESE 1030,2 0,0
23.01.2020 14:00:00 5,7 2,5 6,4 11 6 14 8 ESE 1031,2 0,0
23.01.2020 13:00:00 5,2 3,9 5,7 7 4 11 6 ESE 1031,9 0,0
23.01.2020 12:00:00 5,3 4,3 5,5 7 4 11 6 E 1032,8 0,0
23.01.2020 11:00:00 4,6 3,7 4,8 7 4 11 6 ESE 1033,5 0,0
23.01.2020 10:00:00 4,4 4,4 4,7 7 4 11 6 ESE 1033,5 0,0
23.01.2020 09:00:00 4,7 4,6 4,8 7 4 11 6 SE 1033,8 0,0
23.01.2020 08:00:00 4,6 4,6 4,7 7 4 14 8 E 1033,7 0,0
23.01.2020 07:00:00 4,9 4,8 5,0 7 4 11 6 E 1034,0 0,0
23.01.2020 06:00:00 5,1 5,0 5,2 4 2 11 6 ESE 1034,3 0,0
23.01.2020 05:00:00 5,3 5,2 5,3 4 2 4 2 SSE 1034,7 0,0
23.01.2020 04:00:00 5,1 5,0 5,2 4 2 4 2 E 1035,2 0,0
23.01.2020 03:00:00 5,3 5,2 5,1 4 2 4 2 E 1035,7 0,0
23.01.2020 02:00:00 5,0 4,9 5,1 4 2 4 2 ENE 1036,0 0,0
23.01.2020 01:00:00 5,1 5,0 4,9 4 2 4 2 WSW 1036,4 0,0
23.01.2020 00:00:00 5,1 5,1 5,1 4 2 7 4 WSW 1036,6 0,0
22.01.2020 23:00:00 5,1 5,1 5,0 7 4 7 4 SSW 1036,6 0,0
22.01.2020 22:00:00 5,0 4,9 4,8 4 2 4 2 W 1036,7 0,0
22.01.2020 21:00:00 5,1 5,0 4,9 0 0 11 6 N 1036,7 0,0
22.01.2020 20:00:00 5,2 5,1 5,1 7 4 11 6 WSW 1036,5 0,0
22.01.2020 19:00:00 5,1 5,0 5,0 7 4 7 4 W 1036,6 0,0
22.01.2020 18:00:00 5,1 5,0 5,1 7 4 7 4 W 1036,3 0,0
22.01.2020 17:00:00 5,2 5,1 5,3 4 2 7 4 W 1036,3 0,0
22.01.2020 16:00:00 5,2 5,1 5,4 4 2 7 4 W 1036,2 0,0
22.01.2020 15:00:00 4,8 4,7 5,1 7 4 11 6 WSW 1036,2 0,0
22.01.2020 14:00:00 4,6 4,5 5,0 11 6 14 8 WSW 1036,3 0,0
22.01.2020 13:00:00 4,3 4,2 4,6 11 6 14 8 WSW 1036,6 0,0
22.01.2020 12:00:00 3,7 3,6 4,1 11 6 14 8 SW 1037,2 0,0
22.01.2020 11:00:00 3,0 2,9 3,3 7 4 14 8 W 1037,5 0,0
22.01.2020 10:00:00 2,5 2,4 2,7 11 6 14 8 WSW 1037,3 0,0
22.01.2020 09:00:00 1,8 1,7 1,8 11 6 14 8 SW 1037,0 0,0
22.01.2020 08:00:00 1,3 1,3 1,4 11 6 14 8 SW 1036,8 0,0

tt = temperature
td = dewpoint
tt 5cm = temperature 5cm
ff = wind speed
fx = gusts
dd = wind direction
ppp = reduced air pressure
rr = precipitation

Next stations